sensor_id;sensor_type;location;lat;lon;timestamp;temperature;humidity
26907;DHT22;14472;56.880;16.658;2023-05-29T00:00:16;15.00;1.00
26907;DHT22;14472;56.880;16.658;2023-05-29T00:02:44;15.00;1.00
26907;DHT22;14472;56.880;16.658;2023-05-29T00:05:14;15.00;1.00
26907;DHT22;14472;56.880;16.658;2023-05-29T00:07:40;15.00;1.00
26907;DHT22;14472;56.880;16.658;2023-05-29T00:10:07;15.00;1.00
26907;DHT22;14472;56.880;16.658;2023-05-29T00:12:34;15.00;1.00
26907;DHT22;14472;56.880;16.658;2023-05-29T00:15:00;14.90;1.00
26907;DHT22;14472;56.880;16.658;2023-05-29T00:17:26;14.90;1.00
26907;DHT22;14472;56.880;16.658;2023-05-29T00:19:53;14.90;1.00
26907;DHT22;14472;56.880;16.658;2023-05-29T00:22:18;14.90;1.00
26907;DHT22;14472;56.880;16.658;2023-05-29T00:24:44;14.80;1.00
26907;DHT22;14472;56.880;16.658;2023-05-29T00:27:10;14.80;1.00
26907;DHT22;14472;56.880;16.658;2023-05-29T00:29:36;14.80;1.00
26907;DHT22;14472;56.880;16.658;2023-05-29T00:32:04;14.80;1.00
26907;DHT22;14472;56.880;16.658;2023-05-29T00:34:31;14.80;1.00
26907;DHT22;14472;56.880;16.658;2023-05-29T00:36:57;14.80;1.00
26907;DHT22;14472;56.880;16.658;2023-05-29T00:39:23;14.80;1.00
26907;DHT22;14472;56.880;16.658;2023-05-29T00:41:48;14.80;1.00
26907;DHT22;14472;56.880;16.658;2023-05-29T00:44:18;14.70;1.00
26907;DHT22;14472;56.880;16.658;2023-05-29T00:46:45;14.70;1.00
26907;DHT22;14472;56.880;16.658;2023-05-29T00:49:11;14.70;1.00
26907;DHT22;14472;56.880;16.658;2023-05-29T00:51:37;14.70;1.00
26907;DHT22;14472;56.880;16.658;2023-05-29T00:54:05;14.70;1.00
26907;DHT22;14472;56.880;16.658;2023-05-29T00:56:33;14.70;1.00
26907;DHT22;14472;56.880;16.658;2023-05-29T00:59:00;14.70;1.00
26907;DHT22;14472;56.880;16.658;2023-05-29T01:01:25;14.70;1.00
26907;DHT22;14472;56.880;16.658;2023-05-29T01:03:57;14.60;1.00
26907;DHT22;14472;56.880;16.658;2023-05-29T01:06:23;14.60;1.00
26907;DHT22;14472;56.880;16.658;2023-05-29T01:08:49;14.60;1.00
26907;DHT22;14472;56.880;16.658;2023-05-29T01:14:05;14.60;1.00
26907;DHT22;14472;56.880;16.658;2023-05-29T01:16:41;14.60;1.00
26907;DHT22;14472;56.880;16.658;2023-05-29T01:22:13;14.60;1.00
26907;DHT22;14472;56.880;16.658;2023-05-29T01:24:50;14.60;1.00
26907;DHT22;14472;56.880;16.658;2023-05-29T01:27:22;14.60;1.00
26907;DHT22;14472;56.880;16.658;2023-05-29T01:29:51;14.60;1.00
26907;DHT22;14472;56.880;16.658;2023-05-29T01:32:19;14.60;1.00
26907;DHT22;14472;56.880;16.658;2023-05-29T01:34:45;14.60;1.00
26907;DHT22;14472;56.880;16.658;2023-05-29T01:37:11;14.60;1.00
26907;DHT22;14472;56.880;16.658;2023-05-29T01:39:37;14.60;1.00
26907;DHT22;14472;56.880;16.658;2023-05-29T01:42:03;14.60;1.00
26907;DHT22;14472;56.880;16.658;2023-05-29T01:44:30;14.50;1.00
26907;DHT22;14472;56.880;16.658;2023-05-29T01:46:57;14.50;1.00
26907;DHT22;14472;56.880;16.658;2023-05-29T01:49:26;14.50;1.00
26907;DHT22;14472;56.880;16.658;2023-05-29T01:51:53;14.50;1.00
26907;DHT22;14472;56.880;16.658;2023-05-29T01:54:19;14.50;1.00
26907;DHT22;14472;56.880;16.658;2023-05-29T01:56:47;14.40;1.00
26907;DHT22;14472;56.880;16.658;2023-05-29T01:59:13;14.40;1.00
26907;DHT22;14472;56.880;16.658;2023-05-29T02:01:39;14.40;1.00
26907;DHT22;14472;56.880;16.658;2023-05-29T02:04:05;14.40;1.00
26907;DHT22;14472;56.880;16.658;2023-05-29T02:06:31;14.40;1.00
26907;DHT22;14472;56.880;16.658;2023-05-29T02:08:58;14.30;1.00
26907;DHT22;14472;56.880;16.658;2023-05-29T02:11:24;14.30;1.00
26907;DHT22;14472;56.880;16.658;2023-05-29T02:13:51;14.30;1.00
26907;DHT22;14472;56.880;16.658;2023-05-29T02:16:18;14.30;1.00
26907;DHT22;14472;56.880;16.658;2023-05-29T02:18:46;14.20;1.00
26907;DHT22;14472;56.880;16.658;2023-05-29T02:21:12;14.20;1.00
26907;DHT22;14472;56.880;16.658;2023-05-29T02:23:38;14.20;1.00
26907;DHT22;14472;56.880;16.658;2023-05-29T02:26:04;14.20;1.00
26907;DHT22;14472;56.880;16.658;2023-05-29T02:28:30;14.20;1.00
26907;DHT22;14472;56.880;16.658;2023-05-29T02:30:56;14.20;1.00
26907;DHT22;14472;56.880;16.658;2023-05-29T02:33:22;14.20;1.00
26907;DHT22;14472;56.880;16.658;2023-05-29T02:35:48;14.20;1.00
26907;DHT22;14472;56.880;16.658;2023-05-29T02:38:13;14.20;1.00
26907;DHT22;14472;56.880;16.658;2023-05-29T02:40:39;14.20;1.00
26907;DHT22;14472;56.880;16.658;2023-05-29T02:43:05;14.10;1.00
26907;DHT22;14472;56.880;16.658;2023-05-29T02:45:32;14.10;1.00
26907;DHT22;14472;56.880;16.658;2023-05-29T02:47:58;14.00;1.00
26907;DHT22;14472;56.880;16.658;2023-05-29T02:50:24;14.00;1.00
26907;DHT22;14472;56.880;16.658;2023-05-29T02:52:50;14.00;1.00
26907;DHT22;14472;56.880;16.658;2023-05-29T02:55:16;14.00;1.00
26907;DHT22;14472;56.880;16.658;2023-05-29T02:57:42;13.90;1.00
26907;DHT22;14472;56.880;16.658;2023-05-29T03:00:08;14.00;1.00
26907;DHT22;14472;56.880;16.658;2023-05-29T03:02:34;13.90;1.00
26907;DHT22;14472;56.880;16.658;2023-05-29T03:05:00;13.90;1.00
26907;DHT22;14472;56.880;16.658;2023-05-29T03:07:26;13.90;1.00
26907;DHT22;14472;56.880;16.658;2023-05-29T03:09:53;13.80;1.00
26907;DHT22;14472;56.880;16.658;2023-05-29T03:12:19;13.80;1.00
26907;DHT22;14472;56.880;16.658;2023-05-29T03:14:44;13.80;1.00
26907;DHT22;14472;56.880;16.658;2023-05-29T03:17:10;13.80;1.00
26907;DHT22;14472;56.880;16.658;2023-05-29T03:19:36;13.80;1.00
26907;DHT22;14472;56.880;16.658;2023-05-29T03:22:04;13.90;1.00
26907;DHT22;14472;56.880;16.658;2023-05-29T03:24:30;13.80;1.00
26907;DHT22;14472;56.880;16.658;2023-05-29T03:26:55;13.90;1.00
26907;DHT22;14472;56.880;16.658;2023-05-29T03:29:21;13.90;1.00
26907;DHT22;14472;56.880;16.658;2023-05-29T03:31:47;13.90;1.00
26907;DHT22;14472;56.880;16.658;2023-05-29T03:34:13;13.90;1.00
26907;DHT22;14472;56.880;16.658;2023-05-29T03:36:39;13.90;1.00
26907;DHT22;14472;56.880;16.658;2023-05-29T03:39:05;13.90;1.00
26907;DHT22;14472;56.880;16.658;2023-05-29T03:41:31;13.90;1.00
26907;DHT22;14472;56.880;16.658;2023-05-29T03:43:57;13.90;1.00
26907;DHT22;14472;56.880;16.658;2023-05-29T03:46:23;13.90;1.00
26907;DHT22;14472;56.880;16.658;2023-05-29T03:48:49;13.90;1.00
26907;DHT22;14472;56.880;16.658;2023-05-29T03:51:14;13.90;1.00
26907;DHT22;14472;56.880;16.658;2023-05-29T03:53:40;13.90;1.00
26907;DHT22;14472;56.880;16.658;2023-05-29T03:56:06;13.90;1.00
26907;DHT22;14472;56.880;16.658;2023-05-29T03:58:32;13.80;1.00
26907;DHT22;14472;56.880;16.658;2023-05-29T04:00:58;13.90;1.00
26907;DHT22;14472;56.880;16.658;2023-05-29T04:03:24;13.90;1.00
26907;DHT22;14472;56.880;16.658;2023-05-29T04:05:49;13.90;1.00
26907;DHT22;14472;56.880;16.658;2023-05-29T04:08:15;13.90;1.00
26907;DHT22;14472;56.880;16.658;2023-05-29T04:10:41;14.00;1.00
26907;DHT22;14472;56.880;16.658;2023-05-29T04:13:07;14.00;1.00
26907;DHT22;14472;56.880;16.658;2023-05-29T04:15:32;14.00;1.00
26907;DHT22;14472;56.880;16.658;2023-05-29T04:17:59;14.00;1.00
26907;DHT22;14472;56.880;16.658;2023-05-29T04:20:25;14.00;1.00
26907;DHT22;14472;56.880;16.658;2023-05-29T04:22:51;14.00;1.00
26907;DHT22;14472;56.880;16.658;2023-05-29T04:25:17;14.00;1.00
26907;DHT22;14472;56.880;16.658;2023-05-29T04:27:44;14.10;1.00
26907;DHT22;14472;56.880;16.658;2023-05-29T04:30:15;14.00;1.00
26907;DHT22;14472;56.880;16.658;2023-05-29T04:32:42;14.10;1.00
26907;DHT22;14472;56.880;16.658;2023-05-29T04:35:08;14.10;1.00
26907;DHT22;14472;56.880;16.658;2023-05-29T04:37:35;14.10;1.00
26907;DHT22;14472;56.880;16.658;2023-05-29T04:40:07;14.10;1.00
26907;DHT22;14472;56.880;16.658;2023-05-29T04:42:37;14.10;1.00
26907;DHT22;14472;56.880;16.658;2023-05-29T04:45:03;14.10;1.00
26907;DHT22;14472;56.880;16.658;2023-05-29T04:47:32;14.10;1.00
26907;DHT22;14472;56.880;16.658;2023-05-29T04:50:02;14.10;1.00
26907;DHT22;14472;56.880;16.658;2023-05-29T04:52:27;14.10;1.00
26907;DHT22;14472;56.880;16.658;2023-05-29T04:54:56;14.10;1.00
26907;DHT22;14472;56.880;16.658;2023-05-29T04:57:22;14.20;1.00
26907;DHT22;14472;56.880;16.658;2023-05-29T04:59:48;14.20;1.00
26907;DHT22;14472;56.880;16.658;2023-05-29T05:02:14;14.20;1.00
26907;DHT22;14472;56.880;16.658;2023-05-29T05:04:40;14.30;1.00
26907;DHT22;14472;56.880;16.658;2023-05-29T05:07:05;14.30;1.00
26907;DHT22;14472;56.880;16.658;2023-05-29T05:09:31;14.30;1.00
26907;DHT22;14472;56.880;16.658;2023-05-29T05:11:57;14.30;1.00
26907;DHT22;14472;56.880;16.658;2023-05-29T05:14:23;14.30;1.00
26907;DHT22;14472;56.880;16.658;2023-05-29T05:16:49;14.40;1.00
26907;DHT22;14472;56.880;16.658;2023-05-29T05:19:15;14.40;1.00
26907;DHT22;14472;56.880;16.658;2023-05-29T05:21:41;14.40;1.00
26907;DHT22;14472;56.880;16.658;2023-05-29T05:24:06;14.40;1.00
26907;DHT22;14472;56.880;16.658;2023-05-29T05:26:32;14.50;1.00
26907;DHT22;14472;56.880;16.658;2023-05-29T05:28:58;14.50;1.00
26907;DHT22;14472;56.880;16.658;2023-05-29T05:31:24;14.50;1.00
26907;DHT22;14472;56.880;16.658;2023-05-29T05:33:49;14.60;1.00
26907;DHT22;14472;56.880;16.658;2023-05-29T05:36:16;14.60;1.00
26907;DHT22;14472;56.880;16.658;2023-05-29T05:38:41;14.60;1.00
26907;DHT22;14472;56.880;16.658;2023-05-29T05:41:07;14.60;1.00
26907;DHT22;14472;56.880;16.658;2023-05-29T05:43:33;14.60;1.00
26907;DHT22;14472;56.880;16.658;2023-05-29T05:45:58;14.60;1.00
26907;DHT22;14472;56.880;16.658;2023-05-29T05:48:24;14.60;1.00
26907;DHT22;14472;56.880;16.658;2023-05-29T05:50:50;14.70;1.00
26907;DHT22;14472;56.880;16.658;2023-05-29T05:53:16;14.70;1.00
26907;DHT22;14472;56.880;16.658;2023-05-29T05:55:42;14.70;1.00
26907;DHT22;14472;56.880;16.658;2023-05-29T05:58:08;14.70;1.00
26907;DHT22;14472;56.880;16.658;2023-05-29T06:00:34;14.80;1.00
26907;DHT22;14472;56.880;16.658;2023-05-29T06:03:01;14.80;1.00
26907;DHT22;14472;56.880;16.658;2023-05-29T06:05:29;14.90;1.00
26907;DHT22;14472;56.880;16.658;2023-05-29T06:07:55;14.90;1.00
26907;DHT22;14472;56.880;16.658;2023-05-29T06:10:21;14.90;1.00
26907;DHT22;14472;56.880;16.658;2023-05-29T06:12:47;14.90;1.00
26907;DHT22;14472;56.880;16.658;2023-05-29T06:15:12;15.00;1.00
26907;DHT22;14472;56.880;16.658;2023-05-29T06:17:39;15.00;1.00
26907;DHT22;14472;56.880;16.658;2023-05-29T06:20:05;15.10;1.00
26907;DHT22;14472;56.880;16.658;2023-05-29T06:22:36;15.10;1.00
26907;DHT22;14472;56.880;16.658;2023-05-29T06:25:02;15.10;1.00
26907;DHT22;14472;56.880;16.658;2023-05-29T06:27:27;15.20;1.00
26907;DHT22;14472;56.880;16.658;2023-05-29T06:29:53;15.20;1.00
26907;DHT22;14472;56.880;16.658;2023-05-29T06:32:19;15.30;1.00
26907;DHT22;14472;56.880;16.658;2023-05-29T06:34:45;15.30;1.00
26907;DHT22;14472;56.880;16.658;2023-05-29T06:37:11;15.40;1.00
26907;DHT22;14472;56.880;16.658;2023-05-29T06:39:37;15.40;1.00
26907;DHT22;14472;56.880;16.658;2023-05-29T06:42:03;15.40;1.00
26907;DHT22;14472;56.880;16.658;2023-05-29T06:44:29;15.40;1.00
26907;DHT22;14472;56.880;16.658;2023-05-29T06:46:54;15.50;1.00
26907;DHT22;14472;56.880;16.658;2023-05-29T06:49:20;15.50;1.00
26907;DHT22;14472;56.880;16.658;2023-05-29T06:51:46;15.50;1.00
26907;DHT22;14472;56.880;16.658;2023-05-29T06:54:12;15.60;1.00
26907;DHT22;14472;56.880;16.658;2023-05-29T06:56:37;15.60;1.00
26907;DHT22;14472;56.880;16.658;2023-05-29T06:59:03;15.60;1.00
26907;DHT22;14472;56.880;16.658;2023-05-29T07:01:38;15.70;1.00
26907;DHT22;14472;56.880;16.658;2023-05-29T07:04:04;15.80;1.00
26907;DHT22;14472;56.880;16.658;2023-05-29T07:06:30;15.80;1.00
26907;DHT22;14472;56.880;16.658;2023-05-29T07:08:55;15.90;1.00
26907;DHT22;14472;56.880;16.658;2023-05-29T07:11:21;15.90;1.00
26907;DHT22;14472;56.880;16.658;2023-05-29T07:13:47;16.00;1.00
26907;DHT22;14472;56.880;16.658;2023-05-29T07:16:12;16.00;1.00
26907;DHT22;14472;56.880;16.658;2023-05-29T07:18:38;16.10;1.00
26907;DHT22;14472;56.880;16.658;2023-05-29T07:21:04;16.10;1.00
26907;DHT22;14472;56.880;16.658;2023-05-29T07:23:29;16.20;1.00
26907;DHT22;14472;56.880;16.658;2023-05-29T07:25:55;16.20;1.00
26907;DHT22;14472;56.880;16.658;2023-05-29T07:28:21;16.20;1.00
26907;DHT22;14472;56.880;16.658;2023-05-29T07:30:47;16.30;1.00
26907;DHT22;14472;56.880;16.658;2023-05-29T07:33:12;16.30;1.00
26907;DHT22;14472;56.880;16.658;2023-05-29T07:35:38;16.30;1.00
26907;DHT22;14472;56.880;16.658;2023-05-29T07:38:04;16.30;1.00
26907;DHT22;14472;56.880;16.658;2023-05-29T07:40:29;16.40;1.00
26907;DHT22;14472;56.880;16.658;2023-05-29T07:42:55;16.40;1.00
26907;DHT22;14472;56.880;16.658;2023-05-29T07:45:21;16.40;1.00
26907;DHT22;14472;56.880;16.658;2023-05-29T07:47:46;16.40;1.00
26907;DHT22;14472;56.880;16.658;2023-05-29T07:50:14;16.40;1.00
26907;DHT22;14472;56.880;16.658;2023-05-29T07:52:40;16.40;1.00
26907;DHT22;14472;56.880;16.658;2023-05-29T07:55:07;16.20;1.00
26907;DHT22;14472;56.880;16.658;2023-05-29T07:57:33;16.30;1.00
26907;DHT22;14472;56.880;16.658;2023-05-29T07:59:59;16.40;1.00
26907;DHT22;14472;56.880;16.658;2023-05-29T08:02:24;16.50;1.00
26907;DHT22;14472;56.880;16.658;2023-05-29T08:04:50;16.50;1.00
26907;DHT22;14472;56.880;16.658;2023-05-29T08:07:16;16.40;1.00
26907;DHT22;14472;56.880;16.658;2023-05-29T08:09:42;16.30;1.00
26907;DHT22;14472;56.880;16.658;2023-05-29T08:12:08;16.30;1.00
26907;DHT22;14472;56.880;16.658;2023-05-29T08:14:33;16.30;1.00
26907;DHT22;14472;56.880;16.658;2023-05-29T08:16:59;16.20;1.00
26907;DHT22;14472;56.880;16.658;2023-05-29T08:19:25;16.20;1.00
26907;DHT22;14472;56.880;16.658;2023-05-29T08:21:51;16.10;1.00
26907;DHT22;14472;56.880;16.658;2023-05-29T08:24:17;16.20;1.00
26907;DHT22;14472;56.880;16.658;2023-05-29T08:26:43;16.20;1.00
26907;DHT22;14472;56.880;16.658;2023-05-29T08:29:09;16.30;1.00
26907;DHT22;14472;56.880;16.658;2023-05-29T08:31:35;16.40;1.00
26907;DHT22;14472;56.880;16.658;2023-05-29T08:34:01;16.50;1.00
26907;DHT22;14472;56.880;16.658;2023-05-29T08:36:27;16.50;1.00
26907;DHT22;14472;56.880;16.658;2023-05-29T08:38:53;16.50;1.00
26907;DHT22;14472;56.880;16.658;2023-05-29T08:41:40;16.60;1.00
26907;DHT22;14472;56.880;16.658;2023-05-29T08:44:07;16.70;1.00
26907;DHT22;14472;56.880;16.658;2023-05-29T08:46:39;16.70;1.00
26907;DHT22;14472;56.880;16.658;2023-05-29T08:49:07;16.70;1.00
26907;DHT22;14472;56.880;16.658;2023-05-29T08:51:37;16.60;1.00
26907;DHT22;14472;56.880;16.658;2023-05-29T08:54:03;16.60;1.00
26907;DHT22;14472;56.880;16.658;2023-05-29T08:56:29;16.50;1.00
26907;DHT22;14472;56.880;16.658;2023-05-29T08:58:57;16.60;1.00
26907;DHT22;14472;56.880;16.658;2023-05-29T09:01:23;16.60;1.00
26907;DHT22;14472;56.880;16.658;2023-05-29T09:03:50;16.60;1.00
26907;DHT22;14472;56.880;16.658;2023-05-29T09:06:16;16.50;1.00
26907;DHT22;14472;56.880;16.658;2023-05-29T09:08:43;16.60;1.00
26907;DHT22;14472;56.880;16.658;2023-05-29T09:11:09;16.50;1.00
26907;DHT22;14472;56.880;16.658;2023-05-29T09:13:35;16.40;1.00
26907;DHT22;14472;56.880;16.658;2023-05-29T09:16:01;16.40;1.00
26907;DHT22;14472;56.880;16.658;2023-05-29T09:18:32;16.20;1.00
26907;DHT22;14472;56.880;16.658;2023-05-29T09:20:58;16.20;1.00
26907;DHT22;14472;56.880;16.658;2023-05-29T09:23:25;16.20;1.00
26907;DHT22;14472;56.880;16.658;2023-05-29T09:25:52;16.30;1.00
26907;DHT22;14472;56.880;16.658;2023-05-29T09:28:21;16.30;1.00
26907;DHT22;14472;56.880;16.658;2023-05-29T09:30:47;16.40;1.00
26907;DHT22;14472;56.880;16.658;2023-05-29T09:36:35;16.50;1.00
26907;DHT22;14472;56.880;16.658;2023-05-29T09:39:02;16.50;1.00
26907;DHT22;14472;56.880;16.658;2023-05-29T09:41:29;16.50;1.00
26907;DHT22;14472;56.880;16.658;2023-05-29T09:43:59;16.60;1.00
26907;DHT22;14472;56.880;16.658;2023-05-29T09:46:26;16.50;1.00
26907;DHT22;14472;56.880;16.658;2023-05-29T09:48:52;16.50;1.00
26907;DHT22;14472;56.880;16.658;2023-05-29T09:51:21;16.50;1.00
26907;DHT22;14472;56.880;16.658;2023-05-29T09:53:47;16.50;1.00
26907;DHT22;14472;56.880;16.658;2023-05-29T09:56:15;16.50;1.00
26907;DHT22;14472;56.880;16.658;2023-05-29T09:58:43;16.50;1.00
26907;DHT22;14472;56.880;16.658;2023-05-29T10:01:15;16.60;1.00
26907;DHT22;14472;56.880;16.658;2023-05-29T10:03:44;16.50;1.00
26907;DHT22;14472;56.880;16.658;2023-05-29T10:06:15;16.60;1.00
26907;DHT22;14472;56.880;16.658;2023-05-29T10:08:51;16.60;1.00
26907;DHT22;14472;56.880;16.658;2023-05-29T10:11:21;16.60;1.00
26907;DHT22;14472;56.880;16.658;2023-05-29T10:13:52;16.50;1.00
26907;DHT22;14472;56.880;16.658;2023-05-29T10:16:21;16.70;1.00
26907;DHT22;14472;56.880;16.658;2023-05-29T10:18:54;16.80;1.00
26907;DHT22;14472;56.880;16.658;2023-05-29T10:21:21;16.80;1.00
26907;DHT22;14472;56.880;16.658;2023-05-29T10:23:50;16.70;1.00
26907;DHT22;14472;56.880;16.658;2023-05-29T10:26:21;16.70;1.00
26907;DHT22;14472;56.880;16.658;2023-05-29T10:29:05;16.60;1.00
26907;DHT22;14472;56.880;16.658;2023-05-29T10:31:43;16.70;1.00
26907;DHT22;14472;56.880;16.658;2023-05-29T10:34:45;16.70;1.00
26907;DHT22;14472;56.880;16.658;2023-05-29T10:40:25;16.60;1.00
26907;DHT22;14472;56.880;16.658;2023-05-29T10:42:52;16.70;1.00
26907;DHT22;14472;56.880;16.658;2023-05-29T10:50:42;16.60;1.00
26907;DHT22;14472;56.880;16.658;2023-05-29T10:53:09;16.60;1.00
26907;DHT22;14472;56.880;16.658;2023-05-29T10:55:37;16.70;1.00
26907;DHT22;14472;56.880;16.658;2023-05-29T10:58:13;16.80;1.00
26907;DHT22;14472;56.880;16.658;2023-05-29T11:00:42;16.80;1.00
26907;DHT22;14472;56.880;16.658;2023-05-29T11:03:14;16.90;1.00
26907;DHT22;14472;56.880;16.658;2023-05-29T11:06:05;17.00;1.00
26907;DHT22;14472;56.880;16.658;2023-05-29T11:08:34;17.10;1.00
26907;DHT22;14472;56.880;16.658;2023-05-29T11:11:01;17.20;1.00
26907;DHT22;14472;56.880;16.658;2023-05-29T11:13:34;17.20;1.00
26907;DHT22;14472;56.880;16.658;2023-05-29T11:16:19;17.30;1.00
26907;DHT22;14472;56.880;16.658;2023-05-29T11:18:47;17.60;1.00
26907;DHT22;14472;56.880;16.658;2023-05-29T11:24:00;17.70;1.00
26907;DHT22;14472;56.880;16.658;2023-05-29T11:26:32;17.80;1.00
26907;DHT22;14472;56.880;16.658;2023-05-29T11:29:03;17.90;1.00
26907;DHT22;14472;56.880;16.658;2023-05-29T11:31:37;17.80;1.00
26907;DHT22;14472;56.880;16.658;2023-05-29T11:34:03;17.90;1.00
26907;DHT22;14472;56.880;16.658;2023-05-29T11:36:34;18.00;1.00
26907;DHT22;14472;56.880;16.658;2023-05-29T11:39:01;18.00;1.00
26907;DHT22;14472;56.880;16.658;2023-05-29T11:41:27;18.10;1.00
26907;DHT22;14472;56.880;16.658;2023-05-29T11:44:00;18.10;1.00
26907;DHT22;14472;56.880;16.658;2023-05-29T11:46:31;18.10;1.00
26907;DHT22;14472;56.880;16.658;2023-05-29T11:48:58;18.30;1.00
26907;DHT22;14472;56.880;16.658;2023-05-29T11:51:24;18.20;1.00
26907;DHT22;14472;56.880;16.658;2023-05-29T11:53:50;18.20;1.00
26907;DHT22;14472;56.880;16.658;2023-05-29T11:56:19;18.30;1.00
26907;DHT22;14472;56.880;16.658;2023-05-29T11:58:45;18.20;1.00
26907;DHT22;14472;56.880;16.658;2023-05-29T12:01:11;18.30;1.00
26907;DHT22;14472;56.880;16.658;2023-05-29T12:03:38;18.30;1.00
26907;DHT22;14472;56.880;16.658;2023-05-29T12:06:05;18.30;1.00
26907;DHT22;14472;56.880;16.658;2023-05-29T12:08:32;18.30;1.00
26907;DHT22;14472;56.880;16.658;2023-05-29T12:10:58;18.30;1.00
26907;DHT22;14472;56.880;16.658;2023-05-29T12:13:23;18.40;1.00
26907;DHT22;14472;56.880;16.658;2023-05-29T12:15:53;18.30;1.00
26907;DHT22;14472;56.880;16.658;2023-05-29T12:18:20;18.30;1.00
26907;DHT22;14472;56.880;16.658;2023-05-29T12:20:45;18.30;1.00
26907;DHT22;14472;56.880;16.658;2023-05-29T12:23:11;18.30;1.00
26907;DHT22;14472;56.880;16.658;2023-05-29T12:25:37;18.20;1.00
26907;DHT22;14472;56.880;16.658;2023-05-29T12:28:04;18.20;1.00
26907;DHT22;14472;56.880;16.658;2023-05-29T12:30:30;18.30;1.00
26907;DHT22;14472;56.880;16.658;2023-05-29T12:32:56;18.20;1.00
26907;DHT22;14472;56.880;16.658;2023-05-29T12:35:24;18.30;1.00
26907;DHT22;14472;56.880;16.658;2023-05-29T12:37:59;18.40;1.00
26907;DHT22;14472;56.880;16.658;2023-05-29T12:40:34;18.50;1.00
26907;DHT22;14472;56.880;16.658;2023-05-29T12:43:06;18.50;1.00
26907;DHT22;14472;56.880;16.658;2023-05-29T12:45:33;18.40;1.00
26907;DHT22;14472;56.880;16.658;2023-05-29T12:48:04;18.30;1.00
26907;DHT22;14472;56.880;16.658;2023-05-29T12:50:32;18.40;1.00
26907;DHT22;14472;56.880;16.658;2023-05-29T12:53:12;18.40;1.00
26907;DHT22;14472;56.880;16.658;2023-05-29T12:55:40;18.50;1.00
26907;DHT22;14472;56.880;16.658;2023-05-29T12:58:11;18.70;1.00
26907;DHT22;14472;56.880;16.658;2023-05-29T13:00:38;18.90;1.00
26907;DHT22;14472;56.880;16.658;2023-05-29T13:03:05;19.10;1.00
26907;DHT22;14472;56.880;16.658;2023-05-29T13:05:31;19.30;1.00
26907;DHT22;14472;56.880;16.658;2023-05-29T13:07:57;19.30;1.00
26907;DHT22;14472;56.880;16.658;2023-05-29T13:10:24;19.50;1.00
26907;DHT22;14472;56.880;16.658;2023-05-29T13:12:51;19.60;1.00
26907;DHT22;14472;56.880;16.658;2023-05-29T13:15:20;19.70;1.00
26907;DHT22;14472;56.880;16.658;2023-05-29T13:17:46;19.80;1.00
26907;DHT22;14472;56.880;16.658;2023-05-29T13:20:13;19.90;1.00
26907;DHT22;14472;56.880;16.658;2023-05-29T13:22:40;20.00;1.00
26907;DHT22;14472;56.880;16.658;2023-05-29T13:25:07;19.90;1.00
26907;DHT22;14472;56.880;16.658;2023-05-29T13:27:35;20.00;1.00
26907;DHT22;14472;56.880;16.658;2023-05-29T13:30:02;20.00;1.00
26907;DHT22;14472;56.880;16.658;2023-05-29T13:32:29;20.00;1.00
26907;DHT22;14472;56.880;16.658;2023-05-29T13:34:55;20.10;1.00
26907;DHT22;14472;56.880;16.658;2023-05-29T13:37:21;20.10;1.00
26907;DHT22;14472;56.880;16.658;2023-05-29T13:39:47;20.20;1.00
26907;DHT22;14472;56.880;16.658;2023-05-29T13:42:13;20.20;1.00
26907;DHT22;14472;56.880;16.658;2023-05-29T13:44:39;20.20;1.00
26907;DHT22;14472;56.880;16.658;2023-05-29T13:47:07;20.10;1.00
26907;DHT22;14472;56.880;16.658;2023-05-29T13:49:34;20.10;1.00
26907;DHT22;14472;56.880;16.658;2023-05-29T13:52:01;20.10;1.00
26907;DHT22;14472;56.880;16.658;2023-05-29T13:54:27;20.00;1.00
26907;DHT22;14472;56.880;16.658;2023-05-29T13:56:56;20.10;1.00
26907;DHT22;14472;56.880;16.658;2023-05-29T13:59:22;20.00;1.00
26907;DHT22;14472;56.880;16.658;2023-05-29T14:01:48;20.00;1.00
26907;DHT22;14472;56.880;16.658;2023-05-29T14:04:14;20.10;1.00
26907;DHT22;14472;56.880;16.658;2023-05-29T14:06:40;20.00;1.00
26907;DHT22;14472;56.880;16.658;2023-05-29T14:09:05;20.00;1.00
26907;DHT22;14472;56.880;16.658;2023-05-29T14:11:35;20.10;1.00
26907;DHT22;14472;56.880;16.658;2023-05-29T14:14:03;20.10;1.00
26907;DHT22;14472;56.880;16.658;2023-05-29T14:16:29;20.10;1.00
26907;DHT22;14472;56.880;16.658;2023-05-29T14:18:55;20.10;1.00
26907;DHT22;14472;56.880;16.658;2023-05-29T14:21:20;20.10;1.00
26907;DHT22;14472;56.880;16.658;2023-05-29T14:23:46;20.20;1.00
26907;DHT22;14472;56.880;16.658;2023-05-29T14:26:12;20.20;1.00
26907;DHT22;14472;56.880;16.658;2023-05-29T14:28:38;20.10;1.00
26907;DHT22;14472;56.880;16.658;2023-05-29T14:31:07;20.10;1.00
26907;DHT22;14472;56.880;16.658;2023-05-29T14:33:33;20.10;1.00
26907;DHT22;14472;56.880;16.658;2023-05-29T14:35:59;20.10;1.00
26907;DHT22;14472;56.880;16.658;2023-05-29T14:38:25;20.10;1.00
26907;DHT22;14472;56.880;16.658;2023-05-29T14:40:51;20.10;1.00
26907;DHT22;14472;56.880;16.658;2023-05-29T14:43:17;20.00;1.00
26907;DHT22;14472;56.880;16.658;2023-05-29T14:45:43;20.00;1.00
26907;DHT22;14472;56.880;16.658;2023-05-29T14:48:08;19.90;1.00
26907;DHT22;14472;56.880;16.658;2023-05-29T14:50:36;19.90;1.00
26907;DHT22;14472;56.880;16.658;2023-05-29T14:53:02;19.90;1.00
26907;DHT22;14472;56.880;16.658;2023-05-29T14:55:27;19.90;1.00
26907;DHT22;14472;56.880;16.658;2023-05-29T14:57:53;19.90;1.00
26907;DHT22;14472;56.880;16.658;2023-05-29T15:00:19;19.90;1.00
26907;DHT22;14472;56.880;16.658;2023-05-29T15:02:45;19.90;1.00
26907;DHT22;14472;56.880;16.658;2023-05-29T15:05:11;19.80;1.00
26907;DHT22;14472;56.880;16.658;2023-05-29T15:07:37;19.80;1.00
26907;DHT22;14472;56.880;16.658;2023-05-29T15:10:03;19.80;1.00
26907;DHT22;14472;56.880;16.658;2023-05-29T15:12:31;19.70;1.00
26907;DHT22;14472;56.880;16.658;2023-05-29T15:14:56;19.80;1.00
26907;DHT22;14472;56.880;16.658;2023-05-29T15:17:22;19.70;1.00
26907;DHT22;14472;56.880;16.658;2023-05-29T15:19:48;19.70;1.00
26907;DHT22;14472;56.880;16.658;2023-05-29T15:22:14;19.70;1.00
26907;DHT22;14472;56.880;16.658;2023-05-29T15:24:39;19.60;1.00
26907;DHT22;14472;56.880;16.658;2023-05-29T15:27:05;19.60;1.00
26907;DHT22;14472;56.880;16.658;2023-05-29T15:29:35;19.60;1.00
26907;DHT22;14472;56.880;16.658;2023-05-29T15:32:02;19.50;1.00
26907;DHT22;14472;56.880;16.658;2023-05-29T15:34:29;19.50;1.00
26907;DHT22;14472;56.880;16.658;2023-05-29T15:36:54;19.50;1.00
26907;DHT22;14472;56.880;16.658;2023-05-29T15:39:21;19.50;1.00
26907;DHT22;14472;56.880;16.658;2023-05-29T15:41:47;19.50;1.00
26907;DHT22;14472;56.880;16.658;2023-05-29T15:44:13;19.40;1.00
26907;DHT22;14472;56.880;16.658;2023-05-29T15:46:38;19.40;1.00
26907;DHT22;14472;56.880;16.658;2023-05-29T15:49:04;19.30;1.00